North Wichita, Kansas
Current Conditions -  °F | °C
As of 2:54 AM on Sunday 26 Oct 2014 (Local Time) from KAAO Reporting Station
Clear Clear  
Wind Chill: 61°   Ceiling: Unl
Heat Index: 61°   Visibility: NA
Dew Point: 56°   Wind: 7mph
Humidity: 83%   Direction: 170°S
Pressure: 29.92"   Gusts: NA
Location:  37.7735°N, 97.3663°W
Report Text: KAAO 260754Z AUTO 17006KT CLR 16/13 A2992 RMK AO2 SLP120 T01610133 $
Loading
Personal Weather Stations






























Interactive Weather Map New forecast layout! Learn more

10-Day Weather Forecast

Advertisements
Track Severe Weather on mobile